sensor_id;sensor_type;location;lat;lon;timestamp;P1;durP1;ratioP1;P2;durP2;ratioP2
5776;SDS011;2914;42.668;23.346;2023-04-09T00:01:06;14.33;;;11.20;;
5776;SDS011;2914;42.668;23.346;2023-04-09T00:03:37;14.40;;;11.30;;
5776;SDS011;2914;42.668;23.346;2023-04-09T00:06:06;13.90;;;11.57;;
5776;SDS011;2914;42.668;23.346;2023-04-09T00:08:35;17.17;;;12.00;;
5776;SDS011;2914;42.668;23.346;2023-04-09T00:11:04;17.97;;;13.23;;
5776;SDS011;2914;42.668;23.346;2023-04-09T00:13:33;17.87;;;10.90;;
5776;SDS011;2914;42.668;23.346;2023-04-09T00:16:02;11.47;;;10.10;;
5776;SDS011;2914;42.668;23.346;2023-04-09T00:18:32;12.60;;;10.17;;
5776;SDS011;2914;42.668;23.346;2023-04-09T00:21:01;14.97;;;10.93;;
5776;SDS011;2914;42.668;23.346;2023-04-09T00:23:30;14.87;;;11.57;;
5776;SDS011;2914;42.668;23.346;2023-04-09T00:26:00;13.83;;;10.90;;
5776;SDS011;2914;42.668;23.346;2023-04-09T00:28:29;21.87;;;12.53;;
5776;SDS011;2914;42.668;23.346;2023-04-09T00:30:58;15.93;;;11.53;;
5776;SDS011;2914;42.668;23.346;2023-04-09T00:33:27;17.70;;;11.73;;
5776;SDS011;2914;42.668;23.346;2023-04-09T00:35:56;15.77;;;12.17;;
5776;SDS011;2914;42.668;23.346;2023-04-09T00:38:25;15.07;;;11.33;;
5776;SDS011;2914;42.668;23.346;2023-04-09T00:40:55;16.67;;;11.90;;
5776;SDS011;2914;42.668;23.346;2023-04-09T00:43:32;16.10;;;12.57;;
5776;SDS011;2914;42.668;23.346;2023-04-09T00:46:01;19.57;;;12.77;;
5776;SDS011;2914;42.668;23.346;2023-04-09T00:48:31;15.00;;;11.57;;
5776;SDS011;2914;42.668;23.346;2023-04-09T00:51:00;19.70;;;10.97;;
5776;SDS011;2914;42.668;23.346;2023-04-09T00:53:29;16.03;;;11.90;;
5776;SDS011;2914;42.668;23.346;2023-04-09T00:55:58;18.73;;;12.63;;
5776;SDS011;2914;42.668;23.346;2023-04-09T00:58:28;15.67;;;12.53;;
5776;SDS011;2914;42.668;23.346;2023-04-09T01:00:57;15.87;;;12.10;;
5776;SDS011;2914;42.668;23.346;2023-04-09T01:03:26;16.60;;;10.40;;
5776;SDS011;2914;42.668;23.346;2023-04-09T01:05:57;15.43;;;11.03;;
5776;SDS011;2914;42.668;23.346;2023-04-09T01:08:40;13.33;;;10.93;;
5776;SDS011;2914;42.668;23.346;2023-04-09T01:11:13;14.57;;;11.40;;
5776;SDS011;2914;42.668;23.346;2023-04-09T01:13:47;16.30;;;11.63;;
5776;SDS011;2914;42.668;23.346;2023-04-09T01:16:17;14.90;;;11.03;;
5776;SDS011;2914;42.668;23.346;2023-04-09T01:18:49;18.20;;;11.60;;
5776;SDS011;2914;42.668;23.346;2023-04-09T01:21:22;14.60;;;10.83;;
5776;SDS011;2914;42.668;23.346;2023-04-09T01:23:55;15.23;;;11.30;;
5776;SDS011;2914;42.668;23.346;2023-04-09T01:26:31;13.10;;;10.63;;
5776;SDS011;2914;42.668;23.346;2023-04-09T01:29:03;16.30;;;11.70;;
5776;SDS011;2914;42.668;23.346;2023-04-09T01:31:35;14.90;;;11.60;;
5776;SDS011;2914;42.668;23.346;2023-04-09T01:34:05;13.50;;;10.90;;
5776;SDS011;2914;42.668;23.346;2023-04-09T01:36:37;15.23;;;11.23;;
5776;SDS011;2914;42.668;23.346;2023-04-09T01:39:08;13.60;;;10.97;;
5776;SDS011;2914;42.668;23.346;2023-04-09T01:41:37;12.67;;;10.60;;
5776;SDS011;2914;42.668;23.346;2023-04-09T01:44:21;13.97;;;10.80;;
5776;SDS011;2914;42.668;23.346;2023-04-09T01:46:52;14.00;;;11.93;;
5776;SDS011;2914;42.668;23.346;2023-04-09T01:49:23;14.87;;;11.50;;
5776;SDS011;2914;42.668;23.346;2023-04-09T01:51:53;16.93;;;12.50;;
5776;SDS011;2914;42.668;23.346;2023-04-09T01:54:22;15.20;;;11.90;;
5776;SDS011;2914;42.668;23.346;2023-04-09T01:56:52;12.50;;;11.00;;
5776;SDS011;2914;42.668;23.346;2023-04-09T01:59:22;14.07;;;11.90;;
5776;SDS011;2914;42.668;23.346;2023-04-09T02:01:52;14.20;;;11.77;;
5776;SDS011;2914;42.668;23.346;2023-04-09T02:04:26;13.33;;;11.07;;
5776;SDS011;2914;42.668;23.346;2023-04-09T02:07:09;14.70;;;10.40;;
5776;SDS011;2914;42.668;23.346;2023-04-09T02:09:40;10.97;;;9.67;;
5776;SDS011;2914;42.668;23.346;2023-04-09T02:12:12;11.50;;;10.27;;
5776;SDS011;2914;42.668;23.346;2023-04-09T02:14:44;25.27;;;11.43;;
5776;SDS011;2914;42.668;23.346;2023-04-09T02:17:14;13.40;;;11.43;;
5776;SDS011;2914;42.668;23.346;2023-04-09T02:19:45;16.43;;;10.83;;
5776;SDS011;2914;42.668;23.346;2023-04-09T02:22:14;13.47;;;10.87;;
5776;SDS011;2914;42.668;23.346;2023-04-09T02:24:44;14.73;;;11.73;;
5776;SDS011;2914;42.668;23.346;2023-04-09T02:27:14;15.80;;;12.00;;
5776;SDS011;2914;42.668;23.346;2023-04-09T02:29:43;39.73;;;13.10;;
5776;SDS011;2914;42.668;23.346;2023-04-09T02:32:12;16.70;;;12.67;;
5776;SDS011;2914;42.668;23.346;2023-04-09T02:34:41;17.30;;;13.17;;
5776;SDS011;2914;42.668;23.346;2023-04-09T02:37:11;17.90;;;12.20;;
5776;SDS011;2914;42.668;23.346;2023-04-09T02:39:40;16.70;;;12.50;;
5776;SDS011;2914;42.668;23.346;2023-04-09T02:42:09;17.97;;;13.00;;
5776;SDS011;2914;42.668;23.346;2023-04-09T02:44:38;16.00;;;12.37;;
5776;SDS011;2914;42.668;23.346;2023-04-09T02:47:07;18.63;;;13.70;;
5776;SDS011;2914;42.668;23.346;2023-04-09T02:49:36;21.43;;;12.13;;
5776;SDS011;2914;42.668;23.346;2023-04-09T02:52:05;17.10;;;13.10;;
5776;SDS011;2914;42.668;23.346;2023-04-09T02:54:36;19.33;;;12.97;;
5776;SDS011;2914;42.668;23.346;2023-04-09T02:57:05;20.43;;;12.40;;
5776;SDS011;2914;42.668;23.346;2023-04-09T02:59:34;16.83;;;12.60;;
5776;SDS011;2914;42.668;23.346;2023-04-09T03:02:18;20.93;;;12.70;;
5776;SDS011;2914;42.668;23.346;2023-04-09T03:04:49;20.00;;;13.77;;
5776;SDS011;2914;42.668;23.346;2023-04-09T03:07:27;15.57;;;12.30;;
5776;SDS011;2914;42.668;23.346;2023-04-09T03:09:56;18.20;;;12.23;;
5776;SDS011;2914;42.668;23.346;2023-04-09T03:12:25;19.00;;;14.03;;
5776;SDS011;2914;42.668;23.346;2023-04-09T03:14:54;19.40;;;13.10;;
5776;SDS011;2914;42.668;23.346;2023-04-09T03:17:23;15.90;;;12.40;;
5776;SDS011;2914;42.668;23.346;2023-04-09T03:19:52;18.93;;;13.50;;
5776;SDS011;2914;42.668;23.346;2023-04-09T03:22:22;18.43;;;13.10;;
5776;SDS011;2914;42.668;23.346;2023-04-09T03:24:51;18.60;;;13.17;;
5776;SDS011;2914;42.668;23.346;2023-04-09T03:27:20;13.90;;;11.87;;
5776;SDS011;2914;42.668;23.346;2023-04-09T03:29:49;16.83;;;13.20;;
5776;SDS011;2914;42.668;23.346;2023-04-09T03:32:19;16.00;;;12.07;;
5776;SDS011;2914;42.668;23.346;2023-04-09T03:34:48;16.53;;;12.00;;
5776;SDS011;2914;42.668;23.346;2023-04-09T03:37:17;18.90;;;13.83;;
5776;SDS011;2914;42.668;23.346;2023-04-09T03:39:46;22.50;;;15.60;;
5776;SDS011;2914;42.668;23.346;2023-04-09T03:42:15;23.63;;;15.33;;
5776;SDS011;2914;42.668;23.346;2023-04-09T03:44:53;19.93;;;14.47;;
5776;SDS011;2914;42.668;23.346;2023-04-09T03:47:22;22.90;;;14.30;;
5776;SDS011;2914;42.668;23.346;2023-04-09T03:49:51;20.50;;;14.50;;
5776;SDS011;2914;42.668;23.346;2023-04-09T03:52:20;20.30;;;15.50;;
5776;SDS011;2914;42.668;23.346;2023-04-09T03:54:49;19.97;;;14.43;;
5776;SDS011;2914;42.668;23.346;2023-04-09T03:57:18;21.40;;;15.43;;
5776;SDS011;2914;42.668;23.346;2023-04-09T03:59:47;22.37;;;16.37;;
5776;SDS011;2914;42.668;23.346;2023-04-09T04:02:16;24.13;;;14.43;;
5776;SDS011;2914;42.668;23.346;2023-04-09T04:04:45;20.00;;;15.03;;
5776;SDS011;2914;42.668;23.346;2023-04-09T04:07:14;21.30;;;15.10;;
5776;SDS011;2914;42.668;23.346;2023-04-09T04:09:44;21.30;;;15.90;;
5776;SDS011;2914;42.668;23.346;2023-04-09T04:12:13;20.80;;;14.80;;
5776;SDS011;2914;42.668;23.346;2023-04-09T04:14:42;23.50;;;15.97;;
5776;SDS011;2914;42.668;23.346;2023-04-09T04:17:11;23.40;;;15.43;;
5776;SDS011;2914;42.668;23.346;2023-04-09T04:19:40;20.47;;;14.87;;
5776;SDS011;2914;42.668;23.346;2023-04-09T04:22:09;22.60;;;15.70;;
5776;SDS011;2914;42.668;23.346;2023-04-09T04:24:38;26.10;;;16.63;;
5776;SDS011;2914;42.668;23.346;2023-04-09T04:27:07;21.13;;;14.83;;
5776;SDS011;2914;42.668;23.346;2023-04-09T04:29:36;22.97;;;15.83;;
5776;SDS011;2914;42.668;23.346;2023-04-09T04:32:05;22.50;;;16.40;;
5776;SDS011;2914;42.668;23.346;2023-04-09T04:34:34;27.23;;;15.63;;
5776;SDS011;2914;42.668;23.346;2023-04-09T04:37:03;21.97;;;15.50;;
5776;SDS011;2914;42.668;23.346;2023-04-09T04:39:32;28.27;;;17.33;;
5776;SDS011;2914;42.668;23.346;2023-04-09T04:42:01;22.40;;;15.80;;
5776;SDS011;2914;42.668;23.346;2023-04-09T04:44:45;24.73;;;17.70;;
5776;SDS011;2914;42.668;23.346;2023-04-09T04:47:14;24.80;;;16.60;;
5776;SDS011;2914;42.668;23.346;2023-04-09T04:49:58;35.70;;;16.10;;
5776;SDS011;2914;42.668;23.346;2023-04-09T04:52:27;21.87;;;15.33;;
5776;SDS011;2914;42.668;23.346;2023-04-09T04:54:56;24.07;;;16.97;;
5776;SDS011;2914;42.668;23.346;2023-04-09T04:57:25;22.13;;;16.47;;
5776;SDS011;2914;42.668;23.346;2023-04-09T04:59:54;26.90;;;15.73;;
5776;SDS011;2914;42.668;23.346;2023-04-09T05:02:23;27.70;;;16.07;;
5776;SDS011;2914;42.668;23.346;2023-04-09T05:04:52;26.53;;;16.73;;
5776;SDS011;2914;42.668;23.346;2023-04-09T05:07:22;24.43;;;17.20;;
5776;SDS011;2914;42.668;23.346;2023-04-09T05:09:51;26.13;;;17.23;;
5776;SDS011;2914;42.668;23.346;2023-04-09T05:12:35;35.13;;;20.50;;
5776;SDS011;2914;42.668;23.346;2023-04-09T05:15:05;26.47;;;17.30;;
5776;SDS011;2914;42.668;23.346;2023-04-09T05:17:49;30.47;;;18.83;;
5776;SDS011;2914;42.668;23.346;2023-04-09T05:22:55;27.00;;;17.70;;
5776;SDS011;2914;42.668;23.346;2023-04-09T05:25:24;29.10;;;17.97;;
5776;SDS011;2914;42.668;23.346;2023-04-09T05:27:53;50.70;;;19.10;;
5776;SDS011;2914;42.668;23.346;2023-04-09T05:30:31;35.47;;;19.73;;
5776;SDS011;2914;42.668;23.346;2023-04-09T05:33:00;25.53;;;16.17;;
5776;SDS011;2914;42.668;23.346;2023-04-09T05:35:44;27.70;;;16.53;;
5776;SDS011;2914;42.668;23.346;2023-04-09T05:38:13;28.07;;;17.50;;
5776;SDS011;2914;42.668;23.346;2023-04-09T05:43:18;26.07;;;15.67;;
5776;SDS011;2914;42.668;23.346;2023-04-09T05:45:47;22.83;;;14.53;;
5776;SDS011;2914;42.668;23.346;2023-04-09T05:48:16;22.10;;;14.63;;
5776;SDS011;2914;42.668;23.346;2023-04-09T05:50:54;24.17;;;15.37;;
5776;SDS011;2914;42.668;23.346;2023-04-09T05:53:23;23.00;;;14.63;;
5776;SDS011;2914;42.668;23.346;2023-04-09T05:56:00;25.83;;;15.33;;
5776;SDS011;2914;42.668;23.346;2023-04-09T05:58:30;23.93;;;15.73;;
5776;SDS011;2914;42.668;23.346;2023-04-09T06:01:07;23.33;;;14.87;;
5776;SDS011;2914;42.668;23.346;2023-04-09T06:03:36;27.90;;;15.17;;
5776;SDS011;2914;42.668;23.346;2023-04-09T06:06:20;29.37;;;17.47;;
5776;SDS011;2914;42.668;23.346;2023-04-09T06:08:49;24.10;;;14.83;;
5776;SDS011;2914;42.668;23.346;2023-04-09T06:11:26;24.33;;;15.73;;
5776;SDS011;2914;42.668;23.346;2023-04-09T06:13:55;37.33;;;16.43;;
5776;SDS011;2914;42.668;23.346;2023-04-09T06:16:39;29.37;;;15.80;;
5776;SDS011;2914;42.668;23.346;2023-04-09T06:19:08;28.23;;;16.37;;
5776;SDS011;2914;42.668;23.346;2023-04-09T06:21:46;27.40;;;16.00;;
5776;SDS011;2914;42.668;23.346;2023-04-09T06:24:15;25.37;;;15.80;;
5776;SDS011;2914;42.668;23.346;2023-04-09T06:26:44;22.47;;;15.03;;
5776;SDS011;2914;42.668;23.346;2023-04-09T06:29:13;22.53;;;14.60;;
5776;SDS011;2914;42.668;23.346;2023-04-09T06:31:42;27.33;;;14.33;;
5776;SDS011;2914;42.668;23.346;2023-04-09T06:34:12;26.10;;;14.73;;
5776;SDS011;2914;42.668;23.346;2023-04-09T06:36:41;22.07;;;14.33;;
5776;SDS011;2914;42.668;23.346;2023-04-09T06:39:10;23.23;;;15.67;;
5776;SDS011;2914;42.668;23.346;2023-04-09T06:41:39;29.67;;;17.40;;
5776;SDS011;2914;42.668;23.346;2023-04-09T06:44:16;18.30;;;12.87;;
5776;SDS011;2914;42.668;23.346;2023-04-09T06:46:47;21.20;;;14.87;;
5776;SDS011;2914;42.668;23.346;2023-04-09T06:49:16;22.77;;;10.80;;
5776;SDS011;2914;42.668;23.346;2023-04-09T06:51:46;18.50;;;12.10;;
5776;SDS011;2914;42.668;23.346;2023-04-09T06:54:16;22.53;;;13.50;;
5776;SDS011;2914;42.668;23.346;2023-04-09T06:56:45;22.90;;;13.33;;
5776;SDS011;2914;42.668;23.346;2023-04-09T06:59:15;21.10;;;13.10;;
5776;SDS011;2914;42.668;23.346;2023-04-09T07:01:44;23.27;;;13.43;;
5776;SDS011;2914;42.668;23.346;2023-04-09T07:04:13;22.57;;;14.00;;
5776;SDS011;2914;42.668;23.346;2023-04-09T07:06:42;27.63;;;12.53;;
5776;SDS011;2914;42.668;23.346;2023-04-09T07:09:12;14.10;;;10.67;;
5776;SDS011;2914;42.668;23.346;2023-04-09T07:11:40;16.90;;;11.47;;
5776;SDS011;2914;42.668;23.346;2023-04-09T07:14:10;16.03;;;12.10;;
5776;SDS011;2914;42.668;23.346;2023-04-09T07:16:39;18.90;;;12.50;;
5776;SDS011;2914;42.668;23.346;2023-04-09T07:19:10;15.33;;;11.40;;
5776;SDS011;2914;42.668;23.346;2023-04-09T07:21:39;15.40;;;12.20;;
5776;SDS011;2914;42.668;23.346;2023-04-09T07:24:08;16.83;;;11.40;;
5776;SDS011;2914;42.668;23.346;2023-04-09T07:26:37;14.17;;;10.73;;
5776;SDS011;2914;42.668;23.346;2023-04-09T07:29:06;15.03;;;9.47;;
5776;SDS011;2914;42.668;23.346;2023-04-09T07:31:35;10.33;;;8.10;;
5776;SDS011;2914;42.668;23.346;2023-04-09T07:34:04;10.60;;;8.10;;
5776;SDS011;2914;42.668;23.346;2023-04-09T07:36:33;15.40;;;10.17;;
5776;SDS011;2914;42.668;23.346;2023-04-09T07:39:03;14.00;;;10.40;;
5776;SDS011;2914;42.668;23.346;2023-04-09T07:41:32;15.40;;;10.80;;
5776;SDS011;2914;42.668;23.346;2023-04-09T07:44:09;18.83;;;11.60;;
5776;SDS011;2914;42.668;23.346;2023-04-09T07:46:38;19.07;;;11.17;;
5776;SDS011;2914;42.668;23.346;2023-04-09T07:49:07;14.20;;;10.57;;
5776;SDS011;2914;42.668;23.346;2023-04-09T07:51:37;13.50;;;9.93;;
5776;SDS011;2914;42.668;23.346;2023-04-09T07:54:06;17.50;;;10.43;;
5776;SDS011;2914;42.668;23.346;2023-04-09T07:56:35;22.75;;;11.85;;
5776;SDS011;2914;42.668;23.346;2023-04-09T07:59:04;16.00;;;11.27;;
5776;SDS011;2914;42.668;23.346;2023-04-09T08:01:33;17.95;;;11.53;;
5776;SDS011;2914;42.668;23.346;2023-04-09T08:04:02;16.52;;;12.35;;
5776;SDS011;2914;42.668;23.346;2023-04-09T08:09:14;14.60;;;10.33;;
5776;SDS011;2914;42.668;23.346;2023-04-09T08:11:43;12.53;;;8.80;;
5776;SDS011;2914;42.668;23.346;2023-04-09T08:14:13;14.00;;;9.83;;
5776;SDS011;2914;42.668;23.346;2023-04-09T08:16:44;14.87;;;10.73;;
5776;SDS011;2914;42.668;23.346;2023-04-09T08:19:16;22.50;;;11.47;;
5776;SDS011;2914;42.668;23.346;2023-04-09T08:21:54;16.93;;;11.30;;
5776;SDS011;2914;42.668;23.346;2023-04-09T08:24:24;13.77;;;9.90;;
5776;SDS011;2914;42.668;23.346;2023-04-09T08:27:01;15.40;;;11.43;;
5776;SDS011;2914;42.668;23.346;2023-04-09T08:29:31;15.90;;;10.83;;
5776;SDS011;2914;42.668;23.346;2023-04-09T08:32:01;22.27;;;13.10;;
5776;SDS011;2914;42.668;23.346;2023-04-09T08:34:30;20.93;;;13.07;;
5776;SDS011;2914;42.668;23.346;2023-04-09T08:36:59;19.53;;;11.83;;
5776;SDS011;2914;42.668;23.346;2023-04-09T08:39:28;18.43;;;12.37;;
5776;SDS011;2914;42.668;23.346;2023-04-09T08:41:57;17.53;;;12.50;;
5776;SDS011;2914;42.668;23.346;2023-04-09T08:44:27;18.57;;;12.20;;
5776;SDS011;2914;42.668;23.346;2023-04-09T08:46:57;13.40;;;9.77;;
5776;SDS011;2914;42.668;23.346;2023-04-09T08:49:36;16.67;;;12.67;;
5776;SDS011;2914;42.668;23.346;2023-04-09T08:52:06;17.37;;;13.00;;
5776;SDS011;2914;42.668;23.346;2023-04-09T08:54:36;18.20;;;11.37;;
5776;SDS011;2914;42.668;23.346;2023-04-09T08:57:05;19.03;;;12.57;;
5776;SDS011;2914;42.668;23.346;2023-04-09T08:59:34;19.63;;;12.83;;
5776;SDS011;2914;42.668;23.346;2023-04-09T09:02:06;17.60;;;12.17;;
5776;SDS011;2914;42.668;23.346;2023-04-09T09:04:43;19.83;;;11.90;;
5776;SDS011;2914;42.668;23.346;2023-04-09T09:07:13;16.93;;;12.13;;
5776;SDS011;2914;42.668;23.346;2023-04-09T09:09:53;28.00;;;11.83;;
5776;SDS011;2914;42.668;23.346;2023-04-09T09:12:33;15.03;;;12.30;;
5776;SDS011;2914;42.668;23.346;2023-04-09T09:15:05;16.40;;;10.73;;
5776;SDS011;2914;42.668;23.346;2023-04-09T09:17:53;16.10;;;11.80;;
5776;SDS011;2914;42.668;23.346;2023-04-09T09:20:24;19.13;;;12.00;;
5776;SDS011;2914;42.668;23.346;2023-04-09T09:22:54;17.13;;;11.60;;
5776;SDS011;2914;42.668;23.346;2023-04-09T09:25:25;14.07;;;11.23;;
5776;SDS011;2914;42.668;23.346;2023-04-09T09:27:56;15.90;;;11.10;;
5776;SDS011;2914;42.668;23.346;2023-04-09T09:30:31;16.27;;;11.30;;
5776;SDS011;2914;42.668;23.346;2023-04-09T09:33:05;14.67;;;11.60;;
5776;SDS011;2914;42.668;23.346;2023-04-09T09:38:32;16.80;;;12.33;;
5776;SDS011;2914;42.668;23.346;2023-04-09T09:41:06;15.10;;;11.60;;
5776;SDS011;2914;42.668;23.346;2023-04-09T09:43:44;16.57;;;11.80;;
5776;SDS011;2914;42.668;23.346;2023-04-09T09:46:14;19.93;;;11.57;;
5776;SDS011;2914;42.668;23.346;2023-04-09T09:48:44;15.03;;;11.20;;
5776;SDS011;2914;42.668;23.346;2023-04-09T09:51:14;13.70;;;11.07;;
5776;SDS011;2914;42.668;23.346;2023-04-09T09:53:45;12.80;;;9.70;;
5776;SDS011;2914;42.668;23.346;2023-04-09T09:56:18;13.20;;;9.70;;
5776;SDS011;2914;42.668;23.346;2023-04-09T09:58:52;12.17;;;9.57;;
5776;SDS011;2914;42.668;23.346;2023-04-09T10:01:23;15.30;;;11.00;;
5776;SDS011;2914;42.668;23.346;2023-04-09T10:03:54;12.33;;;10.33;;
5776;SDS011;2914;42.668;23.346;2023-04-09T10:06:25;14.00;;;9.63;;
5776;SDS011;2914;42.668;23.346;2023-04-09T10:08:57;11.03;;;8.73;;
5776;SDS011;2914;42.668;23.346;2023-04-09T10:11:28;9.87;;;8.80;;
5776;SDS011;2914;42.668;23.346;2023-04-09T10:13:59;15.00;;;10.13;;
5776;SDS011;2914;42.668;23.346;2023-04-09T10:16:30;12.07;;;10.03;;
5776;SDS011;2914;42.668;23.346;2023-04-09T10:19:01;10.57;;;9.10;;
5776;SDS011;2914;42.668;23.346;2023-04-09T10:21:33;11.53;;;9.50;;
5776;SDS011;2914;42.668;23.346;2023-04-09T10:24:05;9.60;;;8.40;;
5776;SDS011;2914;42.668;23.346;2023-04-09T10:26:35;11.80;;;8.90;;
5776;SDS011;2914;42.668;23.346;2023-04-09T10:29:08;12.53;;;9.27;;
5776;SDS011;2914;42.668;23.346;2023-04-09T10:34:34;10.57;;;8.83;;
5776;SDS011;2914;42.668;23.346;2023-04-09T10:37:05;11.53;;;9.60;;
5776;SDS011;2914;42.668;23.346;2023-04-09T10:39:38;9.87;;;8.57;;
5776;SDS011;2914;42.668;23.346;2023-04-09T10:42:10;11.70;;;9.50;;
5776;SDS011;2914;42.668;23.346;2023-04-09T10:47:29;10.20;;;9.10;;
5776;SDS011;2914;42.668;23.346;2023-04-09T10:50:04;12.80;;;9.33;;
5776;SDS011;2914;42.668;23.346;2023-04-09T10:52:51;9.70;;;8.50;;
5776;SDS011;2914;42.668;23.346;2023-04-09T10:55:32;10.63;;;9.50;;
5776;SDS011;2914;42.668;23.346;2023-04-09T10:58:04;12.93;;;9.43;;
5776;SDS011;2914;42.668;23.346;2023-04-09T11:00:36;11.03;;;8.90;;
5776;SDS011;2914;42.668;23.346;2023-04-09T11:03:18;8.80;;;7.90;;
5776;SDS011;2914;42.668;23.346;2023-04-09T11:05:50;12.23;;;8.80;;
5776;SDS011;2914;42.668;23.346;2023-04-09T11:08:22;11.53;;;9.20;;
5776;SDS011;2914;42.668;23.346;2023-04-09T11:10:52;9.97;;;8.43;;
5776;SDS011;2914;42.668;23.346;2023-04-09T11:13:23;12.83;;;8.90;;
5776;SDS011;2914;42.668;23.346;2023-04-09T11:16:00;8.27;;;7.40;;
5776;SDS011;2914;42.668;23.346;2023-04-09T11:18:31;11.97;;;9.93;;
5776;SDS011;2914;42.668;23.346;2023-04-09T11:21:02;11.50;;;8.80;;
5776;SDS011;2914;42.668;23.346;2023-04-09T11:23:50;10.30;;;9.20;;
5776;SDS011;2914;42.668;23.346;2023-04-09T11:26:22;11.67;;;9.03;;
5776;SDS011;2914;42.668;23.346;2023-04-09T11:28:55;11.90;;;9.10;;
5776;SDS011;2914;42.668;23.346;2023-04-09T11:31:42;11.20;;;9.00;;
5776;SDS011;2914;42.668;23.346;2023-04-09T11:34:27;10.63;;;8.83;;
5776;SDS011;2914;42.668;23.346;2023-04-09T11:36:56;11.60;;;9.13;;
5776;SDS011;2914;42.668;23.346;2023-04-09T11:39:35;9.43;;;8.43;;
5776;SDS011;2914;42.668;23.346;2023-04-09T11:44:44;9.17;;;8.17;;
5776;SDS011;2914;42.668;23.346;2023-04-09T11:47:13;14.13;;;8.67;;
5776;SDS011;2914;42.668;23.346;2023-04-09T11:49:43;11.20;;;9.70;;
5776;SDS011;2914;42.668;23.346;2023-04-09T11:52:13;13.60;;;9.77;;
5776;SDS011;2914;42.668;23.346;2023-04-09T11:54:42;9.63;;;8.63;;
5776;SDS011;2914;42.668;23.346;2023-04-09T11:57:15;10.07;;;8.77;;
5776;SDS011;2914;42.668;23.346;2023-04-09T11:59:45;10.77;;;8.77;;
5776;SDS011;2914;42.668;23.346;2023-04-09T12:02:16;10.57;;;7.87;;
5776;SDS011;2914;42.668;23.346;2023-04-09T12:04:49;11.20;;;8.83;;
5776;SDS011;2914;42.668;23.346;2023-04-09T12:07:18;9.90;;;8.67;;
5776;SDS011;2914;42.668;23.346;2023-04-09T12:09:47;8.90;;;8.00;;
5776;SDS011;2914;42.668;23.346;2023-04-09T12:12:22;7.87;;;7.17;;
5776;SDS011;2914;42.668;23.346;2023-04-09T12:14:51;8.43;;;7.63;;
5776;SDS011;2914;42.668;23.346;2023-04-09T12:17:21;9.37;;;8.37;;
5776;SDS011;2914;42.668;23.346;2023-04-09T12:19:51;9.00;;;8.10;;
5776;SDS011;2914;42.668;23.346;2023-04-09T12:22:20;13.70;;;10.27;;
5776;SDS011;2914;42.668;23.346;2023-04-09T12:24:57;10.17;;;9.07;;
5776;SDS011;2914;42.668;23.346;2023-04-09T12:27:26;10.33;;;9.03;;
5776;SDS011;2914;42.668;23.346;2023-04-09T12:29:55;31.27;;;6.77;;
5776;SDS011;2914;42.668;23.346;2023-04-09T12:32:24;7.30;;;6.70;;
5776;SDS011;2914;42.668;23.346;2023-04-09T12:34:54;8.67;;;6.70;;
5776;SDS011;2914;42.668;23.346;2023-04-09T12:37:23;7.67;;;6.87;;
5776;SDS011;2914;42.668;23.346;2023-04-09T12:39:54;11.63;;;7.90;;
5776;SDS011;2914;42.668;23.346;2023-04-09T12:42:23;8.30;;;7.37;;
5776;SDS011;2914;42.668;23.346;2023-04-09T12:45:01;8.97;;;6.83;;
5776;SDS011;2914;42.668;23.346;2023-04-09T12:47:42;8.73;;;6.63;;
5776;SDS011;2914;42.668;23.346;2023-04-09T12:50:12;7.43;;;6.77;;
5776;SDS011;2914;42.668;23.346;2023-04-09T12:52:41;12.07;;;7.30;;
5776;SDS011;2914;42.668;23.346;2023-04-09T12:58:09;7.80;;;7.00;;
5776;SDS011;2914;42.668;23.346;2023-04-09T13:00:38;7.23;;;6.67;;
5776;SDS011;2914;42.668;23.346;2023-04-09T13:03:16;8.80;;;7.20;;
5776;SDS011;2914;42.668;23.346;2023-04-09T13:05:45;7.30;;;6.60;;
5776;SDS011;2914;42.668;23.346;2023-04-09T13:08:14;7.30;;;6.60;;
5776;SDS011;2914;42.668;23.346;2023-04-09T13:10:51;10.23;;;8.00;;
5776;SDS011;2914;42.668;23.346;2023-04-09T13:13:20;8.03;;;7.23;;
5776;SDS011;2914;42.668;23.346;2023-04-09T13:16:05;9.60;;;8.60;;
5776;SDS011;2914;42.668;23.346;2023-04-09T13:18:36;8.20;;;7.37;;
5776;SDS011;2914;42.668;23.346;2023-04-09T13:21:06;7.10;;;6.50;;
5776;SDS011;2914;42.668;23.346;2023-04-09T13:23:35;6.50;;;6.00;;
5776;SDS011;2914;42.668;23.346;2023-04-09T13:26:04;6.60;;;6.07;;
5776;SDS011;2914;42.668;23.346;2023-04-09T13:28:33;7.67;;;6.97;;
5776;SDS011;2914;42.668;23.346;2023-04-09T13:31:03;11.83;;;7.30;;
5776;SDS011;2914;42.668;23.346;2023-04-09T13:33:41;7.57;;;6.77;;
5776;SDS011;2914;42.668;23.346;2023-04-09T13:36:10;7.50;;;6.73;;
5776;SDS011;2914;42.668;23.346;2023-04-09T13:38:40;8.73;;;7.50;;
5776;SDS011;2914;42.668;23.346;2023-04-09T13:41:09;7.83;;;7.10;;
5776;SDS011;2914;42.668;23.346;2023-04-09T13:43:46;8.03;;;7.23;;
5776;SDS011;2914;42.668;23.346;2023-04-09T13:46:15;8.07;;;7.27;;
5776;SDS011;2914;42.668;23.346;2023-04-09T13:48:44;6.93;;;6.33;;
5776;SDS011;2914;42.668;23.346;2023-04-09T13:51:13;7.27;;;6.60;;
5776;SDS011;2914;42.668;23.346;2023-04-09T13:53:42;7.63;;;6.93;;
5776;SDS011;2914;42.668;23.346;2023-04-09T13:56:13;8.10;;;7.30;;
5776;SDS011;2914;42.668;23.346;2023-04-09T13:58:42;7.30;;;6.70;;
5776;SDS011;2914;42.668;23.346;2023-04-09T14:01:12;11.03;;;6.77;;
5776;SDS011;2914;42.668;23.346;2023-04-09T14:03:41;8.03;;;7.23;;
5776;SDS011;2914;42.668;23.346;2023-04-09T14:06:10;8.23;;;7.50;;
5776;SDS011;2914;42.668;23.346;2023-04-09T14:08:40;7.30;;;6.70;;
5776;SDS011;2914;42.668;23.346;2023-04-09T14:11:08;7.27;;;6.57;;
5776;SDS011;2914;42.668;23.346;2023-04-09T14:13:40;7.60;;;6.90;;
5776;SDS011;2914;42.668;23.346;2023-04-09T14:16:09;8.37;;;7.50;;
5776;SDS011;2914;42.668;23.346;2023-04-09T14:18:38;8.37;;;7.23;;
5776;SDS011;2914;42.668;23.346;2023-04-09T14:21:20;8.03;;;7.23;;
5776;SDS011;2914;42.668;23.346;2023-04-09T14:27:05;10.80;;;7.13;;
5776;SDS011;2914;42.668;23.346;2023-04-09T14:29:34;8.60;;;7.50;;
5776;SDS011;2914;42.668;23.346;2023-04-09T14:32:03;7.23;;;6.63;;
5776;SDS011;2914;42.668;23.346;2023-04-09T14:34:32;8.27;;;6.00;;
5776;SDS011;2914;42.668;23.346;2023-04-09T14:37:01;8.80;;;7.93;;
5776;SDS011;2914;42.668;23.346;2023-04-09T14:39:31;8.00;;;7.17;;
5776;SDS011;2914;42.668;23.346;2023-04-09T14:42:00;8.40;;;7.53;;
5776;SDS011;2914;42.668;23.346;2023-04-09T14:44:29;7.80;;;7.00;;
5776;SDS011;2914;42.668;23.346;2023-04-09T14:47:26;10.63;;;7.43;;
5776;SDS011;2914;42.668;23.346;2023-04-09T14:49:55;7.13;;;6.50;;
5776;SDS011;2914;42.668;23.346;2023-04-09T14:52:24;9.47;;;7.90;;
5776;SDS011;2914;42.668;23.346;2023-04-09T14:54:55;9.03;;;8.10;;
5776;SDS011;2914;42.668;23.346;2023-04-09T14:57:25;10.70;;;7.87;;
5776;SDS011;2914;42.668;23.346;2023-04-09T14:59:54;13.40;;;8.30;;
5776;SDS011;2914;42.668;23.346;2023-04-09T15:02:23;13.03;;;8.37;;
5776;SDS011;2914;42.668;23.346;2023-04-09T15:04:52;8.53;;;7.60;;
5776;SDS011;2914;42.668;23.346;2023-04-09T15:07:21;8.10;;;7.37;;
5776;SDS011;2914;42.668;23.346;2023-04-09T15:09:50;7.97;;;6.77;;
5776;SDS011;2914;42.668;23.346;2023-04-09T15:12:19;8.10;;;7.30;;
5776;SDS011;2914;42.668;23.346;2023-04-09T15:14:48;7.90;;;7.10;;
5776;SDS011;2914;42.668;23.346;2023-04-09T15:17:17;12.87;;;7.80;;
5776;SDS011;2914;42.668;23.346;2023-04-09T15:19:46;17.27;;;8.30;;
5776;SDS011;2914;42.668;23.346;2023-04-09T15:22:16;9.87;;;6.70;;
5776;SDS011;2914;42.668;23.346;2023-04-09T15:24:45;7.93;;;7.13;;
5776;SDS011;2914;42.668;23.346;2023-04-09T15:27:17;10.07;;;6.90;;
5776;SDS011;2914;42.668;23.346;2023-04-09T15:29:46;10.53;;;7.83;;
5776;SDS011;2914;42.668;23.346;2023-04-09T15:32:15;7.67;;;6.97;;